createdAt,value
2016-03-14T00:00:11.495Z,0
2016-03-14T00:01:11.529Z,0
2016-03-14T00:02:11.517Z,0
2016-03-14T00:03:11.566Z,0
2016-03-14T00:04:11.506Z,0
2016-03-14T00:05:11.540Z,0
2016-03-14T00:06:11.402Z,0
2016-03-14T00:07:11.577Z,0
2016-03-14T00:08:11.580Z,0
2016-03-14T00:09:11.583Z,0
2016-03-14T00:10:11.600Z,0
2016-03-14T00:11:11.634Z,0
2016-03-14T00:12:11.637Z,0
2016-03-14T00:13:11.468Z,0
2016-03-14T00:14:11.642Z,0
2016-03-14T00:15:11.661Z,0
2016-03-14T00:16:11.679Z,0
2016-03-14T00:17:11.667Z,0
2016-03-14T00:18:11.716Z,0
2016-03-14T00:19:11.703Z,0
2016-03-14T00:20:11.721Z,0
2016-03-14T00:21:11.740Z,0
2016-03-14T00:22:11.726Z,0
2016-03-14T00:23:11.745Z,0
2016-03-14T00:24:11.748Z,0
2016-03-14T00:25:11.765Z,0
2016-03-14T00:26:11.768Z,0
2016-03-14T00:27:11.771Z,0
2016-03-14T00:28:11.805Z,0
2016-03-14T00:29:11.792Z,0
2016-03-14T00:30:11.842Z,0
2016-03-14T00:31:11.813Z,0
2016-03-14T00:32:11.862Z,0
2016-03-14T00:33:11.850Z,0
2016-03-14T00:34:11.853Z,0
2016-03-14T00:35:11.917Z,0
2016-03-14T00:36:11.874Z,0
2016-03-14T00:37:11.923Z,0
2016-03-14T00:38:11.895Z,0
2016-03-14T00:39:11.928Z,0
2016-03-14T00:40:11.931Z,0
2016-03-14T00:41:11.933Z,0
2016-03-14T00:42:11.952Z,0
2016-03-14T00:43:11.955Z,0
2016-03-14T00:44:11.973Z,0
2016-03-14T00:45:11.975Z,0
2016-03-14T00:46:11.994Z,0
2016-03-14T00:47:11.997Z,0
2016-03-14T00:48:11.999Z,0
2016-03-14T00:49:12.018Z,0
2016-03-14T00:50:12.036Z,0
2016-03-14T00:51:12.038Z,0
2016-03-14T00:52:12.057Z,0
2016-03-14T00:53:12.060Z,0
2016-03-14T00:54:12.124Z,0
2016-03-14T00:55:12.065Z,0
2016-03-14T00:56:12.084Z,0
2016-03-14T00:57:12.102Z,0
2016-03-14T00:58:12.125Z,0
2016-03-14T00:59:12.133Z,0
2016-03-14T01:00:12.142Z,0
2016-03-14T01:01:12.259Z,0
2016-03-14T01:02:12.359Z,0
2016-03-14T01:03:12.175Z,0
2016-03-14T01:04:12.192Z,0
2016-03-14T01:05:12.211Z,0
2016-03-14T01:06:12.198Z,0
2016-03-14T01:07:12.216Z,0
2016-03-14T01:08:12.251Z,0
2016-03-14T01:09:12.238Z,0
2016-03-14T01:10:12.225Z,0
2016-03-14T01:11:12.305Z,0
2016-03-14T01:12:12.277Z,0
2016-03-14T01:13:12.280Z,0
2016-03-14T01:14:12.298Z,0
2016-03-14T01:15:12.316Z,0
2016-03-14T01:16:12.287Z,0
2016-03-14T01:17:12.306Z,0
2016-03-14T01:18:12.341Z,0
2016-03-14T01:19:12.358Z,0
2016-03-14T01:20:12.360Z,0
2016-03-14T01:21:12.395Z,0
2016-03-14T01:22:12.382Z,0
2016-03-14T01:23:12.384Z,0
2016-03-14T01:24:12.418Z,0
2016-03-14T01:25:12.406Z,0
2016-03-14T01:26:12.267Z,0
2016-03-14T01:27:12.426Z,0
2016-03-14T01:28:12.461Z,0
2016-03-14T01:29:12.448Z,0
2016-03-14T01:30:12.451Z,0
2016-03-14T01:31:12.500Z,0
2016-03-14T01:32:12.487Z,0
2016-03-14T01:33:12.489Z,0
2016-03-14T01:34:12.492Z,0
2016-03-14T01:35:12.526Z,0
2016-03-14T01:36:12.513Z,0
2016-03-14T01:37:12.547Z,0
2016-03-14T01:38:12.534Z,0
2016-03-14T01:39:12.584Z,0
2016-03-14T01:40:12.555Z,0
2016-03-14T01:41:12.574Z,0
2016-03-14T01:42:12.592Z,0
2016-03-14T01:43:12.610Z,0
2016-03-14T01:44:12.597Z,0
2016-03-14T01:45:12.616Z,0
2016-03-14T01:46:12.618Z,0
2016-03-14T01:47:12.637Z,0
2016-03-14T01:48:12.655Z,0
2016-03-14T01:49:12.673Z,0
2016-03-14T01:50:12.676Z,0
2016-03-14T01:51:12.726Z,0
2016-03-14T01:52:12.696Z,0
2016-03-14T01:53:12.699Z,0
2016-03-14T01:54:12.764Z,0
2016-03-14T01:55:12.752Z,0
2016-03-14T01:56:12.739Z,0
2016-03-14T01:57:12.789Z,0
2016-03-14T01:58:12.792Z,0
2016-03-14T01:59:12.762Z,0
2016-03-14T02:00:12.765Z,0
2016-03-14T02:01:12.800Z,0
2016-03-14T02:02:12.786Z,0
2016-03-14T02:03:12.820Z,0
2016-03-14T02:04:12.823Z,0
2016-03-14T02:05:12.842Z,0
2016-03-14T02:06:12.859Z,0
2016-03-14T02:07:12.862Z,0
2016-03-14T02:08:12.881Z,0
2016-03-14T02:09:12.883Z,0
2016-03-14T02:10:12.902Z,0
2016-03-14T02:11:12.889Z,0
2016-03-14T02:12:12.907Z,0
2016-03-14T02:13:12.910Z,0
2016-03-14T02:14:12.944Z,0
2016-03-14T02:15:12.930Z,0
2016-03-14T02:16:12.965Z,0
2016-03-14T02:17:12.952Z,0
2016-03-14T02:18:12.985Z,0
2016-03-14T02:19:12.973Z,0
2016-03-14T02:20:12.991Z,0
2016-03-14T02:21:12.978Z,0
2016-03-14T02:22:13.027Z,0
2016-03-14T02:23:13.014Z,0
2016-03-14T02:24:13.018Z,0
2016-03-14T02:25:13.082Z,0
2016-03-14T02:26:13.085Z,0
2016-03-14T02:27:13.041Z,0
2016-03-14T02:28:13.090Z,0
2016-03-14T02:29:13.093Z,0
2016-03-14T02:30:13.096Z,0
2016-03-14T02:31:13.083Z,0
2016-03-14T02:32:13.117Z,0
2016-03-14T02:33:13.150Z,0
2016-03-14T02:34:13.107Z,0
2016-03-14T02:35:13.187Z,0
2016-03-14T02:36:13.159Z,0
2016-03-14T02:37:13.178Z,0
2016-03-14T02:38:13.164Z,0
2016-03-14T02:39:13.214Z,0
2016-03-14T02:40:13.248Z,0
2016-03-14T02:41:13.203Z,0
2016-03-14T02:42:13.221Z,0
2016-03-14T02:43:13.209Z,0
2016-03-14T02:44:13.211Z,0
2016-03-14T02:45:13.246Z,0
2016-03-14T02:46:12.499Z,0
2016-03-14T02:47:13.282Z,0
2016-03-14T02:48:13.277Z,0
2016-03-14T02:49:13.268Z,0
2016-03-14T02:50:13.273Z,0
2016-03-14T02:51:13.263Z,0
2016-03-14T02:52:13.269Z,0
2016-03-14T02:53:13.294Z,0
2016-03-14T02:54:13.278Z,0
2016-03-14T02:55:13.275Z,0
2016-03-14T02:56:13.274Z,0
2016-03-14T02:57:13.319Z,0
2016-03-14T02:58:13.286Z,0
2016-03-14T02:59:13.303Z,0
2016-03-14T03:00:13.305Z,0
2016-03-14T03:01:13.322Z,0
2016-03-14T03:02:13.323Z,0
2016-03-14T03:03:13.325Z,0
2016-03-14T03:04:13.217Z,0
2016-03-14T03:05:13.359Z,0
2016-03-14T03:06:13.377Z,0
2016-03-14T03:07:13.395Z,0
2016-03-14T03:08:13.382Z,0
2016-03-14T03:09:13.400Z,0
2016-03-14T03:10:13.433Z,0
2016-03-14T03:11:13.405Z,0
2016-03-14T03:12:13.423Z,0
2016-03-14T03:13:13.427Z,0
2016-03-14T03:14:13.460Z,0
2016-03-14T03:15:13.541Z,0
2016-03-14T03:16:13.465Z,0
2016-03-14T03:17:13.453Z,0
2016-03-14T03:18:13.502Z,0
2016-03-14T03:19:13.474Z,0
2016-03-14T03:20:13.523Z,0
2016-03-14T03:21:13.526Z,0
2016-03-14T03:22:13.497Z,0
2016-03-14T03:23:13.531Z,0
2016-03-14T03:24:13.518Z,0
2016-03-14T03:25:13.584Z,0
2016-03-14T03:26:13.570Z,0
2016-03-14T03:27:13.573Z,0
2016-03-14T03:28:13.591Z,0
2016-03-14T03:29:13.594Z,0
2016-03-14T03:30:13.612Z,0
2016-03-14T03:31:13.615Z,0
2016-03-14T03:32:13.603Z,0
2016-03-14T03:33:13.652Z,0
2016-03-14T03:34:13.655Z,0
2016-03-14T03:35:13.814Z,0
2016-03-14T03:36:13.661Z,0
2016-03-14T03:37:13.678Z,0
2016-03-14T03:38:13.666Z,0
2016-03-14T03:39:13.699Z,0
2016-03-14T03:40:13.702Z,0
2016-03-14T03:41:13.705Z,0
2016-03-14T03:42:13.739Z,0
2016-03-14T03:43:13.741Z,0
2016-03-14T03:44:13.729Z,0
2016-03-14T03:45:13.746Z,0
2016-03-14T03:46:13.749Z,0
2016-03-14T03:47:13.767Z,0
2016-03-14T03:48:13.771Z,0
2016-03-14T03:49:13.788Z,0
2016-03-14T03:50:13.854Z,0
2016-03-14T03:51:13.793Z,0
2016-03-14T03:52:13.813Z,0
2016-03-14T03:53:13.831Z,0
2016-03-14T03:54:13.834Z,0
2016-03-14T03:55:13.867Z,0
2016-03-14T03:56:13.854Z,0
2016-03-14T03:57:13.841Z,0
2016-03-14T03:58:13.875Z,0
2016-03-14T03:59:13.878Z,0
2016-03-14T04:00:13.928Z,0
2016-03-14T04:01:13.977Z,0
2016-03-14T04:02:13.917Z,0
2016-03-14T04:03:13.950Z,0
2016-03-14T04:04:13.969Z,0
2016-03-14T04:05:14.003Z,0
2016-03-14T04:06:13.944Z,0
2016-03-14T04:07:13.977Z,0
2016-03-14T04:08:13.980Z,0
2016-03-14T04:09:13.983Z,0
2016-03-14T04:10:14.002Z,0
2016-03-14T04:11:14.020Z,0
2016-03-14T04:12:14.038Z,0
2016-03-14T04:13:14.024Z,0
2016-03-14T04:14:14.043Z,0
2016-03-14T04:15:14.030Z,0
2016-03-14T04:16:14.096Z,0
2016-03-14T04:17:14.068Z,0
2016-03-14T04:18:14.117Z,0
2016-03-14T04:19:14.118Z,0
2016-03-14T04:20:14.106Z,0
2016-03-14T04:21:14.124Z,0
2016-03-14T04:22:14.112Z,0
2016-03-14T04:23:14.162Z,0
2016-03-14T04:24:14.133Z,0
2016-03-14T04:25:14.151Z,0
2016-03-14T04:26:14.185Z,0
2016-03-14T04:27:14.157Z,0
2016-03-14T04:28:14.191Z,0
2016-03-14T04:29:14.178Z,0
2016-03-14T04:30:14.196Z,0
2016-03-14T04:31:14.198Z,0
2016-03-14T04:32:14.248Z,0
2016-03-14T04:33:14.220Z,0
2016-03-14T04:34:14.239Z,0
2016-03-14T04:35:14.256Z,0
2016-03-14T04:36:14.275Z,0
2016-03-14T04:37:14.277Z,0
2016-03-14T04:38:14.280Z,0
2016-03-14T04:39:14.330Z,0
2016-03-14T04:40:14.317Z,0
2016-03-14T04:41:14.288Z,0
2016-03-14T04:42:14.338Z,0
2016-03-14T04:43:14.324Z,0
2016-03-14T04:44:14.359Z,0
2016-03-14T04:45:14.330Z,0
2016-03-14T04:46:14.380Z,0
2016-03-14T04:47:14.366Z,0
2016-03-14T04:48:14.385Z,0
2016-03-14T04:49:14.371Z,0
2016-03-14T04:50:14.390Z,0
2016-03-14T04:51:14.409Z,0
2016-03-14T04:52:14.412Z,0
2016-03-14T04:53:14.445Z,0
2016-03-14T04:54:14.417Z,0
2016-03-14T04:55:14.466Z,0
2016-03-14T04:56:14.453Z,0
2016-03-14T04:57:14.471Z,0
2016-03-14T04:58:14.459Z,0
2016-03-14T04:59:14.508Z,0
2016-03-14T05:00:14.479Z,0
2016-03-14T05:01:14.514Z,0
2016-03-14T05:02:14.517Z,0
2016-03-14T05:03:14.504Z,0
2016-03-14T05:04:14.522Z,0
2016-03-14T05:05:14.540Z,0
2016-03-14T05:06:14.574Z,0
2016-03-14T05:07:14.561Z,0
2016-03-14T05:08:14.580Z,0
2016-03-14T05:09:14.567Z,0
2016-03-14T05:10:14.600Z,0
2016-03-14T05:11:14.572Z,4
2016-03-14T05:12:14.621Z,4
2016-03-14T05:13:14.608Z,4
2016-03-14T05:14:14.658Z,4
2016-03-14T05:15:14.630Z,0
2016-03-14T05:16:14.663Z,0
2016-03-14T05:17:14.666Z,4
2016-03-14T05:18:14.668Z,4
2016-03-14T05:19:14.688Z,4
2016-03-14T05:20:14.721Z,4
2016-03-14T05:21:14.724Z,4
2016-03-14T05:22:14.695Z,4
2016-03-14T05:23:14.713Z,4
2016-03-14T05:24:14.731Z,8
2016-03-14T05:25:14.718Z,8
2016-03-14T05:26:14.753Z,8
2016-03-14T05:27:14.787Z,8
2016-03-14T05:28:14.789Z,8
2016-03-14T05:29:14.792Z,8
2016-03-14T05:30:14.794Z,8
2016-03-14T05:31:14.797Z,12
2016-03-14T05:32:14.800Z,12
2016-03-14T05:33:14.818Z,12
2016-03-14T05:34:14.852Z,16
2016-03-14T05:35:14.855Z,16
2016-03-14T05:36:14.842Z,20
2016-03-14T05:37:14.861Z,20
2016-03-14T05:38:14.864Z,20
2016-03-14T05:39:14.881Z,20
2016-03-14T05:40:14.884Z,24
2016-03-14T05:41:14.886Z,24
2016-03-14T05:42:14.921Z,28
2016-03-14T05:43:14.924Z,28
2016-03-14T05:44:14.927Z,28
2016-03-14T05:45:14.929Z,32
2016-03-14T05:46:14.932Z,32
2016-03-14T05:47:14.777Z,36
2016-03-14T05:48:14.983Z,40
2016-03-14T05:49:15.002Z,44
2016-03-14T05:50:14.988Z,48
2016-03-14T05:51:15.007Z,48
2016-03-14T05:52:15.010Z,52
2016-03-14T05:53:29.107Z,56
2016-03-14T05:54:15.015Z,56
2016-03-14T05:55:15.034Z,60
2016-03-14T05:56:15.052Z,60
2016-03-14T05:57:15.054Z,56
2016-03-14T05:58:15.073Z,56
2016-03-14T05:59:15.075Z,60
2016-03-14T06:00:15.062Z,64
2016-03-14T06:01:15.081Z,72
2016-03-14T06:02:15.100Z,76
2016-03-14T06:03:15.117Z,80
2016-03-14T06:04:15.105Z,88
2016-03-14T06:05:15.107Z,96
2016-03-14T06:06:15.131Z,96
2016-03-14T06:07:15.134Z,100
2016-03-14T06:08:15.152Z,104
2016-03-14T06:09:15.155Z,108
2016-03-14T06:10:15.188Z,116
2016-03-14T06:11:15.191Z,120
2016-03-14T06:12:15.193Z,120
2016-03-14T06:13:15.213Z,120
2016-03-14T06:14:15.215Z,124
2016-03-14T06:15:15.249Z,136
2016-03-14T06:16:15.251Z,140
2016-03-14T06:17:15.269Z,148
2016-03-14T06:18:15.271Z,148
2016-03-14T06:19:15.244Z,156
2016-03-14T06:20:15.262Z,160
2016-03-14T06:21:15.280Z,164
2016-03-14T06:22:15.298Z,164
2016-03-14T06:23:15.317Z,172
2016-03-14T06:24:15.320Z,172
2016-03-14T06:25:15.323Z,164
2016-03-14T06:26:15.325Z,164
2016-03-14T06:27:15.359Z,172
2016-03-14T06:28:15.361Z,180
2016-03-14T06:29:15.364Z,180
2016-03-14T06:30:15.351Z,188
2016-03-14T06:31:15.401Z,196
2016-03-14T06:32:15.389Z,196
2016-03-14T06:33:15.391Z,204
2016-03-14T06:34:15.409Z,216
2016-03-14T06:35:15.411Z,232
2016-03-14T06:36:15.414Z,244
2016-03-14T06:37:15.448Z,256
2016-03-14T06:38:15.436Z,260
2016-03-14T06:39:15.453Z,256
2016-03-14T06:40:15.456Z,248
2016-03-14T06:41:15.490Z,240
2016-03-14T06:42:15.478Z,236
2016-03-14T06:43:15.496Z,232
2016-03-14T06:44:15.514Z,224
2016-03-14T06:45:15.516Z,224
2016-03-14T06:46:15.535Z,224
2016-03-14T06:47:15.568Z,228
2016-03-14T06:48:15.540Z,244
2016-03-14T06:49:15.559Z,248
2016-03-14T06:50:15.562Z,256
2016-03-14T06:51:15.548Z,276
2016-03-14T06:52:15.582Z,288
2016-03-14T06:53:15.584Z,288
2016-03-14T06:54:15.587Z,292
2016-03-14T06:55:15.621Z,288
2016-03-14T06:56:15.624Z,280
2016-03-14T06:57:15.626Z,288
2016-03-14T06:58:15.661Z,308
2016-03-14T06:59:15.648Z,332
2016-03-14T07:00:15.682Z,336
2016-03-14T07:01:15.654Z,348
2016-03-14T07:02:15.687Z,356
2016-03-14T07:03:15.690Z,336
2016-03-14T07:04:15.692Z,324
2016-03-14T07:05:15.711Z,320
2016-03-14T07:06:15.714Z,332
2016-03-14T07:07:15.733Z,372
2016-03-14T07:08:15.736Z,448
2016-03-14T07:09:15.769Z,460
2016-03-14T07:10:15.756Z,428
2016-03-14T07:11:15.774Z,368
2016-03-14T07:12:15.792Z,328
2016-03-14T07:13:15.779Z,316
2016-03-14T07:14:15.814Z,332
2016-03-14T07:15:15.800Z,344
2016-03-14T07:16:15.835Z,360
2016-03-14T07:17:15.805Z,356
2016-03-14T07:18:15.856Z,352
2016-03-14T07:19:15.858Z,380
2016-03-14T07:20:15.861Z,404
2016-03-14T07:21:15.879Z,408
2016-03-14T07:22:15.741Z,412
2016-03-14T07:23:15.884Z,412
2016-03-14T07:24:15.904Z,412
2016-03-14T07:25:15.906Z,412
2016-03-14T07:26:15.909Z,404
2016-03-14T07:27:15.942Z,412
2016-03-14T07:28:15.945Z,436
2016-03-14T07:29:15.962Z,428
2016-03-14T07:30:16.153Z,440
2016-03-14T07:31:15.984Z,440
2016-03-14T07:32:15.971Z,508
2016-03-14T07:33:16.006Z,504
2016-03-14T07:34:15.976Z,524
2016-03-14T07:35:16.011Z,536
2016-03-14T07:36:16.014Z,520
2016-03-14T07:37:16.017Z,516
2016-03-14T07:38:16.034Z,516
2016-03-14T07:39:16.052Z,516
2016-03-14T07:40:16.071Z,540
2016-03-14T07:41:16.074Z,504
2016-03-14T07:42:16.061Z,524
2016-03-14T07:43:16.064Z,552
2016-03-14T07:44:16.082Z,564
2016-03-14T07:45:16.100Z,548
2016-03-14T07:46:16.118Z,536
2016-03-14T07:47:16.121Z,544
2016-03-14T07:48:16.139Z,632
2016-03-14T07:49:16.142Z,608
2016-03-14T07:50:16.144Z,588
2016-03-14T07:51:16.147Z,568
2016-03-14T07:52:16.166Z,568
2016-03-14T07:53:16.200Z,596
2016-03-14T07:54:16.187Z,600
2016-03-14T07:55:16.205Z,612
2016-03-14T07:56:16.254Z,584
2016-03-14T07:57:16.226Z,568
2016-03-14T07:58:16.212Z,604
2016-03-14T07:59:16.232Z,592
2016-03-14T08:00:16.265Z,580
2016-03-14T08:01:16.253Z,580
2016-03-14T08:02:16.286Z,600
2016-03-14T08:03:16.336Z,600
2016-03-14T08:04:16.292Z,696
2016-03-14T08:05:16.295Z,708
2016-03-14T08:06:16.309Z,672
2016-03-14T08:07:16.312Z,668
2016-03-14T08:08:16.330Z,684
2016-03-14T08:09:16.334Z,676
2016-03-14T08:10:16.383Z,708
2016-03-14T08:11:16.417Z,704
2016-03-14T08:12:16.388Z,708
2016-03-14T08:13:16.375Z,756
2016-03-14T08:14:16.393Z,764
2016-03-14T08:15:16.412Z,800
2016-03-14T08:16:16.430Z,808
2016-03-14T08:17:16.449Z,820
2016-03-14T08:18:16.435Z,836
2016-03-14T08:19:16.438Z,848
2016-03-14T08:20:15.706Z,828
2016-03-14T08:21:16.459Z,804
2016-03-14T08:22:16.477Z,800
2016-03-14T08:23:16.480Z,784
2016-03-14T08:24:16.529Z,792
2016-03-14T08:25:16.501Z,824
2016-03-14T08:26:16.520Z,832
2016-03-14T08:27:16.523Z,836
2016-03-14T08:28:16.525Z,896
2016-03-14T08:29:16.528Z,952
2016-03-14T08:30:16.577Z,1048
2016-03-14T08:31:16.439Z,1128
2016-03-14T08:32:16.583Z,1160
2016-03-14T08:33:16.601Z,1176
2016-03-14T08:34:16.588Z,1188
2016-03-14T08:35:16.606Z,1112
2016-03-14T08:36:16.625Z,1172
2016-03-14T08:37:16.658Z,1152
2016-03-14T08:38:16.630Z,1080
2016-03-14T08:39:16.648Z,1232
2016-03-14T08:40:16.651Z,1264
2016-03-14T08:41:16.592Z,1324
2016-03-14T08:42:16.688Z,1264
2016-03-14T08:43:16.659Z,1284
2016-03-14T08:44:16.709Z,1368
2016-03-14T08:45:16.727Z,1480
2016-03-14T08:46:16.730Z,1436
2016-03-14T08:47:16.748Z,1396
2016-03-14T08:48:16.735Z,1348
2016-03-14T08:49:16.754Z,1476
2016-03-14T08:50:16.757Z,1656
2016-03-14T08:51:16.774Z,1696
2016-03-14T08:52:16.808Z,1788
2016-03-14T08:53:16.780Z,1708
2016-03-14T08:54:16.798Z,1772
2016-03-14T08:55:16.801Z,1784
2016-03-14T08:56:16.835Z,1756
2016-03-14T08:57:16.837Z,1812
2016-03-14T08:58:16.840Z,1780
2016-03-14T08:59:16.859Z,1756
2016-03-14T09:00:16.846Z,2004
2016-03-14T09:01:16.879Z,2092
2016-03-14T09:02:16.867Z,2532
2016-03-14T09:03:16.931Z,3444
2016-03-14T09:04:16.919Z,3600
2016-03-14T09:05:16.906Z,4384
2016-03-14T09:06:16.940Z,3936
2016-03-14T09:07:16.942Z,3508
2016-03-14T09:08:16.961Z,4436
2016-03-14T09:09:16.963Z,5008
2016-03-14T09:10:17.716Z,7192
2016-03-14T09:11:17.016Z,4064
2016-03-14T09:12:17.002Z,3396
2016-03-14T09:13:17.005Z,3784
2016-03-14T09:14:17.008Z,4236
2016-03-14T09:15:17.011Z,4252
2016-03-14T09:16:17.060Z,4544
2016-03-14T09:17:17.047Z,7352
2016-03-14T09:18:17.049Z,3672
2016-03-14T09:19:17.085Z,8316
2016-03-14T09:20:17.071Z,4828
2016-03-14T09:21:17.090Z,2872
2016-03-14T09:22:17.123Z,3152
2016-03-14T09:23:17.141Z,3360
2016-03-14T09:24:17.128Z,3160
2016-03-14T09:25:17.179Z,3624
2016-03-14T09:26:17.165Z,3304
2016-03-14T09:27:17.199Z,2580
2016-03-14T09:28:17.201Z,2612
2016-03-14T09:29:17.189Z,2912
2016-03-14T09:30:17.223Z,3164
2016-03-14T09:31:17.225Z,3932
2016-03-14T09:32:17.245Z,2988
2016-03-14T09:33:17.278Z,3056
2016-03-14T09:34:17.281Z,2812
2016-03-14T09:35:17.283Z,2620
2016-03-14T09:36:17.317Z,2840
2016-03-14T09:37:17.320Z,2916
2016-03-14T09:38:17.307Z,2848
2016-03-14T09:39:17.294Z,2320
2016-03-14T09:40:17.344Z,2448
2016-03-14T09:41:17.331Z,2328
2016-03-14T09:42:17.412Z,2148
2016-03-14T09:43:17.383Z,1916
2016-03-14T09:44:17.386Z,1820
2016-03-14T09:45:17.389Z,1860
2016-03-14T09:46:17.422Z,1808
2016-03-14T09:47:17.456Z,1696
2016-03-14T09:48:17.349Z,1576
2016-03-14T09:49:17.446Z,1484
2016-03-14T09:50:17.449Z,1476
2016-03-14T09:51:17.482Z,1504
2016-03-14T09:52:17.470Z,1564
2016-03-14T09:53:17.488Z,1580
2016-03-14T09:54:17.507Z,1600
2016-03-14T09:55:17.524Z,1736
2016-03-14T09:56:17.621Z,2008
2016-03-14T09:57:17.561Z,2268
2016-03-14T09:58:17.564Z,2352
2016-03-14T09:59:17.567Z,2512
2016-03-14T10:00:17.585Z,2496
2016-03-14T10:01:17.619Z,2296
2016-03-14T10:02:17.621Z,2160
2016-03-14T10:03:17.640Z,2152
2016-03-14T10:04:17.643Z,2084
2016-03-14T10:05:17.661Z,2032
2016-03-14T10:06:17.684Z,2036
2016-03-14T10:07:17.675Z,1888
2016-03-14T10:08:17.695Z,1808
2016-03-14T10:09:17.728Z,1788
2016-03-14T10:10:17.716Z,1836
2016-03-14T10:11:17.749Z,1972
2016-03-14T10:12:17.736Z,2056
2016-03-14T10:13:17.771Z,1960
2016-03-14T10:14:17.758Z,1888
2016-03-14T10:15:17.791Z,1892
2016-03-14T10:16:17.794Z,1952
2016-03-14T10:17:17.827Z,1992
2016-03-14T10:18:17.815Z,1984
2016-03-14T10:19:17.849Z,2072
2016-03-14T10:20:17.851Z,2220
2016-03-14T10:21:17.871Z,2304
2016-03-14T10:22:17.857Z,2276
2016-03-14T10:23:17.891Z,2204
2016-03-14T10:24:17.893Z,2220
2016-03-14T10:25:17.928Z,2204
2016-03-14T10:26:17.915Z,2308
2016-03-14T10:27:17.948Z,2368
2016-03-14T10:28:17.952Z,2576
2016-03-14T10:29:17.970Z,2700
2016-03-14T10:30:17.973Z,4360
2016-03-14T10:31:18.022Z,2524
2016-03-14T10:32:17.993Z,2436
2016-03-14T10:33:18.012Z,2352
2016-03-14T10:34:18.031Z,2280
2016-03-14T10:35:18.048Z,2376
2016-03-14T10:36:18.113Z,2244
2016-03-14T10:37:18.085Z,2144
2016-03-14T10:38:18.103Z,2012
2016-03-14T10:39:18.122Z,2176
2016-03-14T10:40:18.108Z,2236
2016-03-14T10:41:18.127Z,2276
2016-03-14T10:42:18.130Z,2392
2016-03-14T10:43:18.133Z,2412
2016-03-14T10:44:18.182Z,2316
2016-03-14T10:45:18.185Z,2272
2016-03-14T10:46:18.235Z,1944
2016-03-14T10:47:18.205Z,1804
2016-03-14T10:48:18.208Z,1652
2016-03-14T10:49:18.243Z,1584
2016-03-14T10:50:18.260Z,1588
2016-03-14T10:51:18.263Z,1604
2016-03-14T10:52:18.328Z,1648
2016-03-14T10:53:18.284Z,1604
2016-03-14T10:54:18.302Z,1588
2016-03-14T10:55:18.304Z,1632
2016-03-14T10:56:18.324Z,1668
2016-03-14T10:57:18.342Z,1660
2016-03-14T10:58:18.345Z,1600
2016-03-14T10:59:18.378Z,1556
2016-03-14T11:00:18.365Z,1540
2016-03-14T11:01:18.385Z,1472
2016-03-14T11:02:18.418Z,1436
2016-03-14T11:03:18.406Z,1452
2016-03-14T11:04:18.440Z,1520
2016-03-14T11:05:18.443Z,1560
2016-03-14T11:06:18.460Z,1640
2016-03-14T11:07:18.510Z,1748
2016-03-14T11:08:18.513Z,1832
2016-03-14T11:09:18.500Z,2004
2016-03-14T11:10:18.534Z,2132
2016-03-14T11:11:18.536Z,2352
2016-03-14T11:12:18.539Z,2360
2016-03-14T11:13:18.558Z,2400
2016-03-14T11:14:18.576Z,2444
2016-03-14T11:15:18.595Z,2588
2016-03-14T11:16:18.644Z,2668
2016-03-14T11:17:18.615Z,2760
2016-03-14T11:18:18.617Z,2940
2016-03-14T11:19:18.620Z,2812
2016-03-14T11:20:18.655Z,2816
2016-03-14T11:21:18.658Z,2724
2016-03-14T11:22:18.678Z,2636
2016-03-14T11:23:18.696Z,2744
2016-03-14T11:24:18.683Z,2748
2016-03-14T11:25:18.718Z,2756
2016-03-14T11:26:18.736Z,2768
2016-03-14T11:27:18.723Z,2664
2016-03-14T11:28:18.757Z,2568
2016-03-14T11:29:18.807Z,2560
2016-03-14T11:30:18.793Z,2600
2016-03-14T11:31:18.781Z,2796
2016-03-14T11:32:18.799Z,3004
2016-03-14T11:33:18.833Z,3452
2016-03-14T11:34:18.868Z,4984
2016-03-14T11:35:18.854Z,6116
2016-03-14T11:36:20.435Z,5824
2016-03-14T11:37:18.734Z,5516
2016-03-14T11:38:18.893Z,6204
2016-03-14T11:39:18.912Z,6172
2016-03-14T11:40:18.929Z,5732
2016-03-14T11:41:18.949Z,5652
2016-03-14T11:42:18.951Z,5364
2016-03-14T11:43:19.016Z,3792
2016-03-14T11:44:19.003Z,5684
2016-03-14T11:45:19.006Z,4432
2016-03-14T11:46:19.009Z,5656
2016-03-14T11:47:19.042Z,5656
2016-03-14T11:48:19.045Z,5676
2016-03-14T11:49:19.048Z,5600
2016-03-14T11:50:18.989Z,5368
2016-03-14T11:51:19.084Z,5392
2016-03-14T11:52:19.119Z,5372
2016-03-14T11:53:19.027Z,5324
2016-03-14T11:54:19.117Z,5196
2016-03-14T11:55:19.142Z,5244
2016-03-14T11:56:19.165Z,5132
2016-03-14T11:57:19.174Z,5268
2016-03-14T11:58:19.204Z,5340
2016-03-14T11:59:19.170Z,5424
2016-03-14T12:00:19.200Z,5348
2016-03-14T12:01:19.199Z,5608
2016-03-14T12:02:19.229Z,5596
2016-03-14T12:03:19.244Z,5492
2016-03-14T12:04:19.245Z,5440
2016-03-14T12:05:19.277Z,5620
2016-03-14T12:06:19.373Z,5068
2016-03-14T12:07:19.297Z,5396
2016-03-14T12:08:19.313Z,5144
2016-03-14T12:09:19.331Z,4980
2016-03-14T12:10:19.350Z,2620
2016-03-14T12:11:19.383Z,5180
2016-03-14T12:12:19.386Z,5080
2016-03-14T12:13:19.434Z,3456
2016-03-14T12:14:19.437Z,5128
2016-03-14T12:15:19.454Z,5248
2016-03-14T12:16:19.473Z,3512
2016-03-14T12:17:19.475Z,5024
2016-03-14T12:18:19.524Z,4204
2016-03-14T12:19:19.511Z,2564
2016-03-14T12:20:19.560Z,2680
2016-03-14T12:21:19.579Z,2556
2016-03-14T12:22:19.581Z,4792
2016-03-14T12:23:19.616Z,2748
2016-03-14T12:24:19.634Z,3224
2016-03-14T12:25:19.637Z,2784
2016-03-14T12:26:19.857Z,2632
2016-03-14T12:27:19.704Z,3940
2016-03-14T12:28:19.706Z,2232
2016-03-14T12:29:19.757Z,2192
2016-03-14T12:30:19.760Z,2112
2016-03-14T12:31:19.762Z,2080
2016-03-14T12:32:19.781Z,1972
2016-03-14T12:33:19.783Z,1868
2016-03-14T12:34:19.832Z,1960
2016-03-14T12:35:19.834Z,1820
2016-03-14T12:36:19.870Z,1856
2016-03-14T12:37:19.872Z,2296
2016-03-14T12:38:19.906Z,1804
2016-03-14T12:39:19.909Z,1764
2016-03-14T12:40:19.959Z,1736
2016-03-14T12:41:19.976Z,2552
2016-03-14T12:42:19.995Z,2220
2016-03-14T12:43:20.013Z,2252
2016-03-14T12:44:20.016Z,4240
2016-03-14T12:45:20.018Z,4464
2016-03-14T12:46:20.052Z,4276
2016-03-14T12:47:20.071Z,3488
2016-03-14T12:48:20.073Z,2428
2016-03-14T12:49:20.122Z,4396
2016-03-14T12:50:20.125Z,1992
2016-03-14T12:51:20.160Z,1848
2016-03-14T12:52:20.177Z,1876
2016-03-14T12:53:20.181Z,2004
2016-03-14T12:54:20.199Z,1772
2016-03-14T12:55:20.232Z,1736
2016-03-14T12:56:20.236Z,1884
2016-03-14T12:57:20.254Z,2084
2016-03-14T12:58:20.288Z,3724
2016-03-14T12:59:20.290Z,4080
2016-03-14T13:00:20.309Z,3272
2016-03-14T13:01:20.326Z,3124
2016-03-14T13:02:20.345Z,4108
2016-03-14T13:03:20.364Z,4224
2016-03-14T13:04:20.381Z,3608
2016-03-14T13:05:20.400Z,3788
2016-03-14T13:06:20.403Z,3844
2016-03-14T13:07:20.436Z,3024
2016-03-14T13:08:20.471Z,2084
2016-03-14T13:09:20.458Z,2112
2016-03-14T13:10:20.476Z,2140
2016-03-14T13:11:20.511Z,2036
2016-03-14T13:12:20.497Z,1840
2016-03-14T13:13:20.547Z,3844
2016-03-14T13:14:20.580Z,1700
2016-03-14T13:15:20.583Z,3604
2016-03-14T13:16:20.586Z,3192
2016-03-14T13:17:20.620Z,1592
2016-03-14T13:18:20.638Z,2200
2016-03-14T13:19:20.485Z,1960
2016-03-14T13:20:20.659Z,3684
2016-03-14T13:21:20.708Z,2968
2016-03-14T13:22:20.711Z,3920
2016-03-14T13:23:20.713Z,3724
2016-03-14T13:24:20.733Z,3640
2016-03-14T13:25:20.751Z,2856
2016-03-14T13:26:20.785Z,2868
2016-03-14T13:27:20.803Z,3320
2016-03-14T13:28:20.822Z,1424
2016-03-14T13:29:20.855Z,1288
2016-03-14T13:30:20.857Z,1296
2016-03-14T13:31:20.860Z,1616
2016-03-14T13:32:20.863Z,3224
2016-03-14T13:33:20.929Z,2388
2016-03-14T13:34:20.932Z,1488
2016-03-14T13:35:20.950Z,3164
2016-03-14T13:36:21.015Z,3364
2016-03-14T13:37:20.986Z,3312
2016-03-14T13:38:20.989Z,2648
2016-03-14T13:39:21.039Z,2344
2016-03-14T13:40:21.041Z,2552
2016-03-14T13:41:21.060Z,1524
2016-03-14T13:42:21.078Z,1996
2016-03-14T13:43:21.065Z,2300
2016-03-14T13:44:21.099Z,1520
2016-03-14T13:45:21.117Z,2728
2016-03-14T13:46:21.151Z,3256
2016-03-14T13:47:21.185Z,1672
2016-03-14T13:48:21.188Z,3052
2016-03-14T13:49:21.206Z,2928
2016-03-14T13:50:21.209Z,3032
2016-03-14T13:51:21.227Z,1416
2016-03-14T13:52:21.261Z,1340
2016-03-14T13:53:21.263Z,2972
2016-03-14T13:54:21.267Z,2164
2016-03-14T13:55:21.300Z,3192
2016-03-14T13:56:21.334Z,1820
2016-03-14T13:57:21.337Z,2012
2016-03-14T13:58:21.355Z,1804